首页
METAR-TAF:

METAR-TAF

机场 :

Pensacola Regional Airport

彭萨科拉, 佛罗里达州, 美国

纬度: 30-28-41N, 经度: 087-11-13W, 海拔: 36米

当前天气观测

该预报发布于49分钟前的23:53 UTC
风速4节,风向南转南东
温度 26°C
湿度 79%
气压 1012 hPa
能見度: 16.1公里
多云层高于3500英尺
阴天层高于4600英尺

METAR: KPNS 262353Z 16004KT 10SM BKN035 OVC046 26/22 A2988 RMK AO2 LTG DSNT NW-NE SLP118 T02610222 10294 20261 51015

时间: 19:42 (00:42 UTC)

预报

该预报发布于1小时和13分钟前的23:29 UTC
预报有效从27日的 00点(UTC)到 27日的 24点(UTC)
风速8节,风向南转南东
能見度: 10公里
散云层高于4500英尺, 积雨云.
多云层高于7000英尺
附近有雷暴
短暂存在
从 27日的 00点(UTC)到 27日的 03点(UTC)
能見度: 6.4公里
多云层高于2700英尺
阵雨
从 27日的 0600点(UTC)
风速6节,风向东转东北
能見度: 10公里
散云层高于1700英尺
多云层高于2700英尺
几率 30%
从 27日的 12点(UTC)到 27日的 15点(UTC)
能見度: 6.4公里
多云层高于1000英尺
小阵雨
从 27日的 1500点(UTC)
风速7节,风向东转东南
能見度: 10公里
散云层高于1400英尺
多云层高于2500英尺
几率 30%
从 27日的 15点(UTC)到 27日的 16点(UTC)
能見度: 6.4公里
多云层高于1400英尺, 积雨云.
雷暴, 雨

TAF: KPNS 262329Z 2700/2724 16008KT P6SM VCTS SCT045CB BKN070 TEMPO 2700/2703 4SM SHRA BKN027 FM270600 07006KT P6SM SCT017 BKN027 PROB30 2712/2715 4SM -SHRA BKN010 FM271500 12007KT P6SM SCT014 BKN025 PROB30 2715/2716 4SM TSRA BKN014CB

超过4000个机场的气象观测和天气预报(METAR&TAF报告)。

可查询的气象台以黄色和红色小点在地图上表示。

将鼠标移到小点上方,可查看气象台名称。

然后点击查看天气观测和预报。

如需切换地图:点击带黑十字的绿色按钮放大地图;点击带横线的绿色按钮缩小地图;或者点击绿色箭头查看邻近地区的地图。


METAR-TAF: